Time;durP1;ratioP1;P1;durP2;ratioP2;P2;SDS_P1;SDS_P2;PMS_P1;PMS_P2;Temp;Humidity;BMP_temperature;BMP_pressure;BME280_temperature;BME280_humidity;BME280_pressure;Samples;Min_cycle;Max_cycle;Signal;HPM_P1;HPM_P2
2023/01/13 00:00:47;;;;;;;0.88;0.30;;;;;;;;;;4986337;28;20030;-81
2023/01/13 00:03:13;;;;;;;0.35;0.08;;;;;;;;;;4991138;28;20026;-81
2023/01/13 00:05:39;;;;;;;0.10;0.10;;;;;;;;;;4985680;28;20042;-81
2023/01/13 00:08:05;;;;;;;1.27;0.32;;;;;;;;;;4989161;28;20081;-80
2023/01/13 00:10:32;;;;;;;2.42;0.38;;;;;;;;;;4992865;28;20085;-80
2023/01/13 00:12:58;;;;;;;0.10;0.10;;;;;;;;;;4988378;28;20174;-80
2023/01/13 00:15:24;;;;;;;1.23;0.25;;;;;;;;;;4985068;28;20122;-80
2023/01/13 00:17:50;;;;;;;0.40;0.10;;;;;;;;;;4997548;28;20014;-79
2023/01/13 00:20:16;;;;;;;0.25;0.22;;;;;;;;;;4984610;28;20054;-83
2023/01/13 00:22:42;;;;;;;0.70;0.30;;;;;;;;;;4993448;28;20031;-80
2023/01/13 00:25:08;;;;;;;0.10;0.10;;;;;;;;;;4995147;28;20023;-80
2023/01/13 00:27:34;;;;;;;0.52;0.10;;;;;;;;;;4997349;28;20027;-81
2023/01/13 00:30:00;;;;;;;4.43;0.13;;;;;;;;;;4991523;28;20053;-82
2023/01/13 00:32:27;;;;;;;0.00;0.00;;;;;;;;;;4984315;28;20034;-82
2023/01/13 00:34:53;;;;;;;1.02;0.35;;;;;;;;;;4985172;28;20124;-81
2023/01/13 00:37:19;;;;;;;0.10;0.10;;;;;;;;;;4991333;28;20060;-80
2023/01/13 00:39:45;;;;;;;0.40;0.28;;;;;;;;;;4987362;28;20173;-81
2023/01/13 00:44:56;;;;;;;0.10;0.10;;;;;;;;;;4988705;28;20193;-81
2023/01/13 00:47:22;;;;;;;0.68;0.10;;;;;;;;;;4983153;28;20031;-81
2023/01/13 00:49:49;;;;;;;3.38;0.25;;;;;;;;;;4987637;28;20055;-80
2023/01/13 00:52:14;;;;;;;0.10;0.10;;;10.10;99.90;;;;;;4995652;28;20038;-82
2023/01/13 00:54:40;;;;;;;1.48;0.20;;;;;;;;;;4982939;28;20386;-80
2023/01/13 00:57:06;;;;;;;0.00;0.00;;;;;;;;;;4979250;28;20023;-81
2023/01/13 00:59:32;;;;;;;0.20;0.10;;;;;;;;;;4988351;28;20137;-82
2023/01/13 01:01:58;;;;;;;3.78;0.20;;;;;;;;;;4985415;28;20022;-80
2023/01/13 01:04:24;;;;;;;0.10;0.10;;;;;;;;;;4995104;28;20042;-82
2023/01/13 01:06:50;;;;;;;0.17;0.05;;;;;;;;;;4990678;28;20034;-80
2023/01/13 01:09:16;;;;;;;0.00;0.00;;;;;;;;;;4995319;28;20063;-81
2023/01/13 01:11:43;;;;;;;2.20;0.20;;;;;;;;;;4998706;28;20038;-82
2023/01/13 01:14:10;;;;;;;1.45;0.30;;;;;;;;;;4985677;28;20030;-79
2023/01/13 01:16:37;;;;;;;0.82;0.25;;;;;;;;;;4993371;28;20086;-81
2023/01/13 01:19:03;;;;;;;3.20;0.25;;;;;;;;;;4992005;28;20030;-82
2023/01/13 01:21:30;;;;;;;1.48;0.15;;;;;;;;;;4994690;28;20534;-82
2023/01/13 01:23:58;;;;;;;2.65;0.32;;;;;;;;;;4996298;28;20026;-82
2023/01/13 01:26:24;;;;;;;0.17;0.17;;;;;;;;;;4994218;28;20027;-80
2023/01/13 01:28:50;;;;;;;0.30;0.10;;;;;;;;;;4987981;28;20100;-79
2023/01/13 01:31:18;;;;;;;0.28;0.08;;;10.00;99.90;;;;;;4986116;28;20135;-81
2023/01/13 01:33:46;;;;;;;0.15;0.10;;;;;;;;;;4988465;28;20035;-82
2023/01/13 01:36:13;;;;;;;0.20;0.15;;;10.00;99.90;;;;;;4985822;28;20038;-81
2023/01/13 01:38:39;;;;;;;0.47;0.47;;;;;;;;;;4986708;28;20037;-83
2023/01/13 01:41:06;;;;;;;2.97;0.95;;;;;;;;;;4991412;28;20125;-83
2023/01/13 01:44:01;;;;;;;0.30;0.15;;;;;;;;;;4984964;28;20038;-82
2023/01/13 01:46:41;;;;;;;0.10;0.10;;;10.00;99.90;;;;;;4980717;28;20037;-80
2023/01/13 01:49:09;;;;;;;0.10;0.10;;;;;;;;;;4986052;28;20098;-82
2023/01/13 01:51:38;;;;;;;0.52;0.10;;;;;;;;;;4984811;28;20377;-81
2023/01/13 01:54:06;;;;;;;1.45;0.30;;;;;;;;;;4980909;28;20058;-82
2023/01/13 01:56:33;;;;;;;0.10;0.10;;;;;;;;;;4984944;28;20077;-81
2023/01/13 01:58:59;;;;;;;0.15;0.10;;;;;;;;;;4986426;28;20046;-78
2023/01/13 02:01:25;;;;;;;0.80;0.30;;;;;;;;;;4980958;28;20034;-82
2023/01/13 02:04:00;;;;;;;0.68;0.10;;;;;;;;;;4984580;28;20049;-81
2023/01/13 02:06:27;;;;;;;1.30;0.15;;;;;;;;;;4988751;28;20042;-80
2023/01/13 02:08:53;;;;;;;0.20;0.10;;;;;;;;;;4984542;28;20033;-81
2023/01/13 02:14:14;;;;;;;0.90;0.25;;;;;;;;;;4984533;28;20037;-80
2023/01/13 02:16:43;;;;;;;0.30;0.10;;;;;;;;;;4984388;28;20030;-80
2023/01/13 02:19:14;;;;;;;0.40;0.30;;;;;;;;;;4987436;28;20035;-81
2023/01/13 02:22:01;;;;;;;0.85;0.20;;;;;;;;;;4982186;28;20426;-81
2023/01/13 02:25:02;;;;;;;1.30;0.15;;;10.40;99.90;;;;;;4981899;28;20034;-81
2023/01/13 02:27:28;;;;;;;0.52;0.20;;;;;;;;;;4988408;28;20034;-82
2023/01/13 02:33:39;;;;;;;2.17;0.15;;;8.90;99.90;;;;;;4985852;28;20058;-82
2023/01/13 02:36:05;;;;;;;7.82;0.20;;;;;;;;;;4989409;28;20126;-83
2023/01/13 02:38:34;;;;;;;0.65;0.28;;;;;;;;;;4984032;28;20042;-80
2023/01/13 02:44:05;;;;;;;0.10;0.10;;;;;;;;;;4990012;28;20034;-82
2023/01/13 02:44:05;;;;;;;0.25;0.20;;;;;;;;;;4985879;28;20038;-80
2023/01/13 02:46:34;;;;;;;0.15;0.10;;;;;;;;;;4989191;28;20615;-79
2023/01/13 02:49:03;;;;;;;0.17;0.10;;;;;;;;;;4985593;28;20027;-80
2023/01/13 02:51:31;;;;;;;0.55;0.10;;;;;;;;;;4990449;28;20100;-83
2023/01/13 02:53:59;;;;;;;0.38;0.13;;;;;;;;;;4988607;28;20610;-82
2023/01/13 02:56:26;;;;;;;4.38;0.30;;;;;;;;;;4991648;28;20038;-80
2023/01/13 02:58:54;;;;;;;0.10;0.10;;;8.90;99.90;;;;;;4989794;28;20034;-81
2023/01/13 03:01:20;;;;;;;0.65;0.30;;;;;;;;;;4984067;28;20088;-79
2023/01/13 03:03:48;;;;;;;0.20;0.10;;;;;;;;;;4991875;28;20514;-78
2023/01/13 03:06:28;;;;;;;1.52;0.15;;;9.30;99.90;;;;;;4985384;28;20391;-82
2023/01/13 03:08:59;;;;;;;0.13;0.10;;;;;;;;;;4990268;28;20041;-82
2023/01/13 03:11:31;;;;;;;5.70;0.65;;;;;;;;;;4986667;28;20045;-83
2023/01/13 03:14:05;;;;;;;2.47;1.42;;;9.80;99.90;;;;;;4988016;28;20037;-79
2023/01/13 03:16:31;;;;;;;0.13;0.13;;;;;;;;;;4987662;28;20035;-79
2023/01/13 03:19:31;;;;;;;4.45;0.20;;;10.20;99.90;;;;;;4989043;28;20044;-82
2023/01/13 03:22:01;;;;;;;0.20;0.20;;;;;;;;;;4989330;28;20041;-80
2023/01/13 03:24:27;;;;;;;0.22;0.22;;;;;;;;;;4987380;28;20034;-80
2023/01/13 03:27:02;;;;;;;0.08;0.08;;;;;;;;;;4983856;28;20240;-81
2023/01/13 03:29:39;;;;;;;0.75;0.65;;;;;;;;;;4986898;28;20065;-81
2023/01/13 03:32:17;;;;;;;1.00;0.30;;;;;;;;;;4989011;28;20376;-81
2023/01/13 03:34:48;;;;;;;2.58;0.52;;;;;;;;;;4986584;28;20050;-81
2023/01/13 03:37:16;;;;;;;6.63;1.30;;;;;;;;;;4983630;28;20057;-79
2023/01/13 03:39:45;;;;;;;0.50;0.38;;;;;;;;;;4977006;28;20515;-79
2023/01/13 03:42:17;;;;;;;2.88;0.20;;;9.30;99.90;;;;;;4990277;28;20406;-82
2023/01/13 03:44:53;;;;;;;0.15;0.10;;;;;;;;;;4980055;28;20046;-81
2023/01/13 03:47:27;;;;;;;2.33;0.50;;;;;;;;;;4985035;28;20031;-79
2023/01/13 03:49:53;;;;;;;14.93;4.53;;;;;;;;;;4980421;28;20068;-80
2023/01/13 03:52:25;;;;;;;11.80;4.53;;;;;;;;;;4979948;28;20433;-81
2023/01/13 03:54:55;;;;;;;9.95;4.38;;;;;;;;;;4980545;28;20031;-78
2023/01/13 03:57:24;;;;;;;5.20;1.92;;;;;;;;;;4983153;28;20038;-79
2023/01/13 03:59:54;;;;;;;0.65;0.30;;;10.00;99.90;;;;;;4982465;28;20034;-81
2023/01/13 04:02:44;;;;;;;12.55;3.00;;;;;;;;;;4990952;28;20037;-82
2023/01/13 04:05:11;;;;;;;1.27;0.68;;;;;;;;;;4991410;28;20495;-81
2023/01/13 04:07:56;;;;;;;2.50;0.98;;;;;;;;;;4991603;28;20053;-82
2023/01/13 04:10:29;;;;;;;2.00;0.70;;;;;;;;;;4988070;28;20100;-81
2023/01/13 04:13:01;;;;;;;4.13;1.33;;;;;;;;;;4981651;28;20441;-84
2023/01/13 04:15:30;;;;;;;0.40;0.22;;;10.10;99.90;;;;;;4985648;28;20065;-81
2023/01/13 04:18:22;;;;;;;0.20;0.10;;;;;;;;;;4987991;28;20086;-81
2023/01/13 04:20:50;;;;;;;2.10;0.47;;;;;;;;;;4985276;28;20049;-78
2023/01/13 04:23:16;;;;;;;1.05;0.15;;;;;;;;;;4984546;28;20030;-82
2023/01/13 04:25:43;;;;;;;0.20;0.20;;;;;;;;;;4975573;28;20095;-80
2023/01/13 04:28:09;;;;;;;0.47;0.13;;;;;;;;;;4985787;28;20023;-83
2023/01/13 04:30:35;;;;;;;0.65;0.13;;;;;;;;;;4977989;28;20126;-79
2023/01/13 04:33:03;;;;;;;5.85;2.17;;;;;;;;;;4982881;28;20031;-82
2023/01/13 04:35:29;;;;;;;4.90;1.80;;;9.90;99.90;;;;;;4991287;28;20029;-79
2023/01/13 04:37:55;;;;;;;1.77;0.60;;;;;;;;;;4988855;28;20035;-83
2023/01/13 04:40:21;;;;;;;5.22;0.43;;;;;;;;;;4970412;28;20026;-82
2023/01/13 04:42:46;;;;;;;4.55;1.55;;;9.70;99.90;;;;;;4982621;28;20069;-80
2023/01/13 04:45:12;;;;;;;0.57;0.22;;;;;;;;;;4979108;28;20030;-80
2023/01/13 04:47:40;;;;;;;0.80;0.45;;;;;;;;;;4976798;28;20031;-79
2023/01/13 04:50:06;;;;;;;2.33;1.00;;;;;;;;;;4983835;28;20038;-82
2023/01/13 04:52:32;;;;;;;2.90;0.20;;;;;;;;;;4985363;28;20057;-80
2023/01/13 04:54:58;;;;;;;0.28;0.08;;;;;;;;;;4986041;28;20027;-80
2023/01/13 04:57:24;;;;;;;2.15;0.63;;;;;;;;;;4985759;28;20038;-81
2023/01/13 04:59:51;;;;;;;2.47;0.40;;;;;;;;;;4976757;28;20034;-82
2023/01/13 05:02:20;;;;;;;2.95;0.30;;;;;;;;;;4973266;28;20037;-81
2023/01/13 05:04:46;;;;;;;0.17;0.17;;;;;;;;;;4987769;28;20125;-82
2023/01/13 05:07:13;;;;;;;5.30;1.20;;;;;;;;;;4992299;28;20036;-81
2023/01/13 05:09:39;;;;;;;4.22;1.25;;;;;;;;;;4992602;28;20050;-79
2023/01/13 05:17:34;;;;;;;0.17;0.10;;;;;;;;;;4988929;28;20155;-81
2023/01/13 05:20:00;;;;;;;0.90;0.20;;;;;;;;;;4986234;28;20072;-80
2023/01/13 05:25:21;;;;;;;0.30;0.10;;;;;;;;;;4981487;28;20049;-82
2023/01/13 05:27:48;;;;;;;0.22;0.10;;;;;;;;;;4996727;28;20078;-80
2023/01/13 05:30:14;;;;;;;0.85;0.45;;;;;;;;;;4993990;28;20426;-80
2023/01/13 05:32:40;;;;;;;3.00;0.35;;;;;;;;;;4992887;28;20033;-81
2023/01/13 05:35:06;;;;;;;0.10;0.10;;;;;;;;;;4991431;28;20129;-81
2023/01/13 05:37:31;;;;;;;1.60;0.17;;;9.80;99.90;;;;;;4992014;28;20097;-80
2023/01/13 05:45:29;;;;;;;4.68;0.70;;;;;;;;;;4988313;28;20104;-82
2023/01/13 05:47:55;;;;;;;5.07;0.88;;;;;;;;;;4973487;28;20045;-81
2023/01/13 05:50:21;;;;;;;5.70;1.33;;;;;;;;;;4981486;28;20031;-80
2023/01/13 05:52:47;;;;;;;1.40;0.50;;;;;;;;;;4985829;28;20094;-79
2023/01/13 05:55:13;;;;;;;0.52;0.10;;;10.00;99.90;;;;;;4991472;28;20029;-80
2023/01/13 05:57:39;;;;;;;1.40;0.28;;;;;;;;;;4996261;28;20475;-81
2023/01/13 06:00:06;;;;;;;1.27;0.70;;;;;;;;;;4993617;28;20399;-80
2023/01/13 06:02:31;;;;;;;0.38;0.20;;;;;;;;;;4993293;28;20033;-80
2023/01/13 06:04:57;;;;;;;0.20;0.10;;;9.90;99.90;;;;;;4992561;28;20034;-80
2023/01/13 06:07:23;;;;;;;3.78;0.20;;;;;;;;;;4996402;28;20460;-80
2023/01/13 06:09:49;;;;;;;0.80;0.15;;;;;;;;;;4998415;28;20043;-81
2023/01/13 06:12:15;;;;;;;0.68;0.25;;;;;;;;;;4997376;28;20619;-80
2023/01/13 06:14:41;;;;;;;2.35;1.10;;;;;;;;;;4992090;28;20030;-82
2023/01/13 06:17:08;;;;;;;0.52;0.17;;;;;;;;;;4985674;28;20031;-79
2023/01/13 06:19:34;;;;;;;1.38;0.30;;;;;;;;;;4995826;28;20022;-81
2023/01/13 06:22:08;;;;;;;0.30;0.10;;;10.20;99.90;;;;;;4990455;28;20658;-81
2023/01/13 06:24:34;;;;;;;2.10;0.30;;;;;;;;;;4995395;28;20026;-83
2023/01/13 06:27:00;;;;;;;3.90;0.68;;;;;;;;;;4982511;28;20026;-81
2023/01/13 06:29:25;;;;;;;3.28;0.60;;;;;;;;;;4979058;28;20026;-80
2023/01/13 06:31:51;;;;;;;1.60;0.52;;;;;;;;;;4980913;28;20138;-81
2023/01/13 06:34:17;;;;;;;2.60;0.65;;;;;;;;;;4981451;28;20041;-81
2023/01/13 06:36:45;;;;;;;6.00;2.75;;;;;;;;;;4982946;28;20019;-82
2023/01/13 06:39:13;;;;;;;0.90;0.50;;;;;;;;;;4989851;28;20030;-79
2023/01/13 06:44:24;;;;;;;2.70;0.80;;;;;;;;;;4978538;28;20073;-82
2023/01/13 06:46:50;;;;;;;3.10;1.35;;;9.90;99.90;;;;;;4981090;28;20031;-83
2023/01/13 06:49:16;;;;;;;3.60;0.52;;;;;;;;;;4993303;28;20029;-82
2023/01/13 06:51:43;;;;;;;3.70;1.35;;;;;;;;;;4993675;28;20043;-83
2023/01/13 06:54:08;;;;;;;2.30;0.85;;;;;;;;;;4992967;28;20089;-80
2023/01/13 06:56:34;;;;;;;2.60;0.77;;;;;;;;;;4991832;28;20030;-81
2023/01/13 06:59:00;;;;;;;4.53;0.70;;;;;;;;;;4995910;28;20090;-83
2023/01/13 07:01:26;;;;;;;1.27;0.65;;;;;;;;;;4992161;28;20061;-81
2023/01/13 07:03:52;;;;;;;0.73;0.30;;;;;;;;;;4995215;28;20483;-84
2023/01/13 07:06:18;;;;;;;1.33;0.40;;;;;;;;;;4992522;28;20047;-81
2023/01/13 07:08:44;;;;;;;1.90;0.88;;;;;;;;;;4994070;28;20105;-81
2023/01/13 07:11:10;;;;;;;0.75;0.40;;;;;;;;;;4988780;28;20560;-82
2023/01/13 07:16:23;;;;;;;2.65;0.13;;;;;;;;;;4993235;28;20402;-81
2023/01/13 07:18:49;;;;;;;0.00;0.00;;;;;;;;;;4989309;28;20035;-83
2023/01/13 07:21:18;;;;;;;0.28;0.10;;;;;;;;;;4990595;28;20031;-83
2023/01/13 07:23:45;;;;;;;0.10;0.10;;;;;;;;;;4985108;28;20030;-80
2023/01/13 07:26:11;;;;;;;1.75;0.20;;;;;;;;;;4996974;28;20041;-82
2023/01/13 07:28:37;;;;;;;0.32;0.20;;;10.10;99.90;;;;;;4989170;28;20027;-81
2023/01/13 07:31:03;;;;;;;5.55;0.35;;;;;;;;;;4986839;28;20043;-82
2023/01/13 07:33:32;;;;;;;1.45;0.38;;;;;;;;;;4998046;28;20037;-81
2023/01/13 07:35:59;;;;;;;1.02;0.30;;;;;;;;;;4988666;28;20037;-83
2023/01/13 07:38:25;;;;;;;0.32;0.28;;;;;;;;;;4990435;28;20387;-83
2023/01/13 07:40:51;;;;;;;0.70;0.30;;;9.90;99.90;;;;;;4992798;28;20034;-81
2023/01/13 07:43:32;;;;;;;0.90;0.30;;;;;;;;;;4987061;28;20562;-79
2023/01/13 07:45:59;;;;;;;0.70;0.28;;;;;;;;;;4986652;28;20117;-79
2023/01/13 07:48:25;;;;;;;0.13;0.10;;;;;;;;;;4990969;28;20499;-80
2023/01/13 07:50:51;;;;;;;1.88;0.10;;;;;;;;;;4989041;28;20034;-80
2023/01/13 07:53:18;;;;;;;0.13;0.10;;;;;;;;;;4990670;28;20446;-81
2023/01/13 07:55:44;;;;;;;0.95;0.30;;;;;;;;;;4982688;28;20101;-82
2023/01/13 07:58:10;;;;;;;0.10;0.10;;;;;;;;;;4988935;28;20029;-82
2023/01/13 08:00:37;;;;;;;1.55;0.30;;;;;;;;;;4986143;28;20038;-81
2023/01/13 08:03:02;;;;;;;0.38;0.20;;;9.90;99.90;;;;;;4982771;28;20027;-82
2023/01/13 08:05:28;;;;;;;1.75;0.22;;;;;;;;;;4985892;28;20109;-80
2023/01/13 08:07:54;;;;;;;0.30;0.15;;;;;;;;;;4988806;28;20035;-79
2023/01/13 08:10:20;;;;;;;0.00;0.00;;;;;;;;;;4989104;28;20023;-81
2023/01/13 08:15:33;;;;;;;0.22;0.10;;;;;;;;;;4982952;28;20095;-82
2023/01/13 08:17:59;;;;;;;1.20;0.30;;;;;;;;;;4985244;28;20030;-82
2023/01/13 08:20:25;;;;;;;0.17;0.10;;;;;;;;;;4994524;28;20107;-81
2023/01/13 08:22:56;;;;;;;1.35;0.40;;;9.90;99.90;;;;;;4992095;28;20557;-82
2023/01/13 08:25:22;;;;;;;3.17;0.40;;;;;;;;;;4987777;28;20030;-80
2023/01/13 08:27:49;;;;;;;0.73;0.30;;;;;;;;;;4992340;28;20665;-83
2023/01/13 08:30:15;;;;;;;0.40;0.20;;;;;;;;;;4990876;28;20470;-81
2023/01/13 08:32:44;;;;;;;2.05;0.88;;;9.40;99.90;;;;;;4990036;28;21260;-82
2023/01/13 08:35:11;;;;;;;1.70;0.40;;;;;;;;;;4990873;28;20061;-81
2023/01/13 08:37:37;;;;;;;1.45;0.47;;;;;;;;;;4985406;28;20030;-83
2023/01/13 08:40:03;;;;;;;0.20;0.20;;;;;;;;;;4990246;28;20033;-81
2023/01/13 08:42:29;;;;;;;2.20;0.40;;;;;;;;;;4997088;28;20031;-83
2023/01/13 08:44:55;;;;;;;0.47;0.28;;;9.80;99.90;;;;;;4992915;28;20030;-81
2023/01/13 08:47:22;;;;;;;0.98;0.40;;;;;;;;;;4989276;28;20117;-82
2023/01/13 08:49:48;;;;;;;0.20;0.10;;;;;;;;;;4987540;28;20238;-81
2023/01/13 08:52:14;;;;;;;0.52;0.10;;;;;;;;;;4990355;28;20090;-82
2023/01/13 08:54:40;;;;;;;0.13;0.10;;;;;;;;;;4995985;28;20034;-81
2023/01/13 08:57:06;;;;;;;0.55;0.30;;;;;;;;;;4994569;28;20026;-82
2023/01/13 08:59:32;;;;;;;0.80;0.10;;;;;;;;;;4986461;28;20045;-79
2023/01/13 09:01:58;;;;;;;1.42;0.35;;;;;;;;;;4995628;28;20117;-81
2023/01/13 09:04:26;;;;;;;0.20;0.10;;;;;;;;;;4982798;28;20034;-83
2023/01/13 09:06:52;;;;;;;1.10;0.40;;;;;;;;;;4994899;28;20047;-81
2023/01/13 09:09:18;;;;;;;1.17;0.60;;;;;;;;;;4996085;28;20129;-81
2023/01/13 09:14:33;;;;;;;0.45;0.22;;;9.40;99.90;;;;;;4993706;28;20072;-83
2023/01/13 09:16:59;;;;;;;0.55;0.28;;;9.70;99.90;;;;;;4998512;28;20041;-80
2023/01/13 09:19:26;;;;;;;0.57;0.30;;;9.70;99.90;;;;;;4990899;28;20023;-82
2023/01/13 09:21:52;;;;;;;0.25;0.17;;;;;;;;;;4991883;28;20699;-82
2023/01/13 09:24:19;;;;;;;0.28;0.20;;;;;;;;;;4995969;28;20050;-82
2023/01/13 09:26:45;;;;;;;4.40;1.45;;;;;;;;;;4998236;28;20759;-83
2023/01/13 09:29:11;;;;;;;2.13;0.80;;;;;;;;;;4992567;28;20038;-80
2023/01/13 09:31:37;;;;;;;0.45;0.20;;;;;;;;;;4996006;28;20100;-82
2023/01/13 09:36:48;;;;;;;1.38;0.40;;;;;;;;;;5005406;28;20050;-81
2023/01/13 09:39:14;;;;;;;1.67;0.10;;;;;;;;;;5004111;28;20098;-81
2023/01/13 09:44:44;;;;;;;1.00;0.40;;;;;;;;;;5003291;28;20100;-82
2023/01/13 09:47:25;;;;;;;1.63;0.32;;;;;;;;;;4987325;28;20022;-84
2023/01/13 09:49:51;;;;;;;0.75;0.20;;;;;;;;;;4994087;28;20034;-82
2023/01/13 09:52:23;;;;;;;1.98;0.88;;;;;;;;;;4997322;28;20073;-81
2023/01/13 09:54:52;;;;;;;1.20;0.50;;;;;;;;;;4993074;28;20026;-83
2023/01/13 09:57:20;;;;;;;1.48;0.38;;;;;;;;;;4990650;28;20035;-81
2023/01/13 09:59:46;;;;;;;1.63;0.60;;;;;;;;;;4984082;28;20040;-80
2023/01/13 10:02:15;;;;;;;2.15;1.17;;;;;;;;;;4988142;28;20034;-82
2023/01/13 10:04:40;;;;;;;1.30;0.45;;;;;;;;;;4986201;28;20046;-82
2023/01/13 10:07:11;;;;;;;4.57;0.88;;;;;;;;;;4995499;28;20383;-80
2023/01/13 10:09:45;;;;;;;0.10;0.10;;;10.50;99.90;;;;;;4996272;28;20033;-80
2023/01/13 10:14:59;;;;;;;1.65;0.65;;;;;;;;;;5000717;28;20065;-83
2023/01/13 10:17:31;;;;;;;0.63;0.20;;;;;;;;;;4988325;28;20043;-80
2023/01/13 10:20:02;;;;;;;0.43;0.30;;;;;;;;;;4995791;28;20057;-82
2023/01/13 10:22:28;;;;;;;2.10;0.73;;;;;;;;;;4989372;28;20055;-83
2023/01/13 10:25:19;;;;;;;5.07;0.70;;;10.60;99.90;;;;;;4993328;28;20034;-80
2023/01/13 10:27:48;;;;;;;3.42;0.40;;;;;;;;;;4991569;28;20033;-83
2023/01/13 10:30:22;;;;;;;1.98;0.30;;;10.70;99.90;;;;;;4982399;28;20029;-82
2023/01/13 10:32:58;;;;;;;1.85;0.30;;;;;;;;;;4989061;28;20050;-82
2023/01/13 10:35:48;;;;;;;1.65;0.47;;;9.20;99.90;;;;;;4995923;28;20070;-81
2023/01/13 10:38:22;;;;;;;0.45;0.10;;;;;;;;;;4990103;28;20025;-82
2023/01/13 10:40:49;;;;;;;2.47;0.35;;;;;;;;;;4996809;28;20026;-80
2023/01/13 10:43:15;;;;;;;6.20;1.25;;;;;;;;;;4993572;28;20041;-82
2023/01/13 10:45:50;;;;;;;1.67;0.82;;;9.80;99.90;;;;;;4992867;28;20117;-83
2023/01/13 10:48:16;;;;;;;0.82;0.15;;;;;;;;;;4993574;28;20038;-81
2023/01/13 10:50:42;;;;;;;0.30;0.28;;;;;;;;;;4994826;28;20049;-83
2023/01/13 10:53:18;;;;;;;0.93;0.38;;;;;;;;;;4995966;28;20114;-83
2023/01/13 10:55:57;;;;;;;0.47;0.30;;;;;;;;;;4984322;28;20206;-83
2023/01/13 10:58:24;;;;;;;1.55;0.47;;;9.90;99.90;;;;;;4994841;28;20402;-81
2023/01/13 11:00:59;;;;;;;2.25;0.35;;;10.00;99.90;;;;;;4990814;28;20030;-80
2023/01/13 11:03:26;;;;;;;1.20;0.40;;;;;;;;;;4990751;28;20430;-80
2023/01/13 11:05:56;;;;;;;4.78;1.10;;;;;;;;;;4996092;28;20042;-82
2023/01/13 11:08:27;;;;;;;1.13;0.40;;;;;;;;;;4986445;28;20364;-82
2023/01/13 11:10:55;;;;;;;1.75;0.35;;;;;;;;;;4993869;28;20081;-83
2023/01/13 11:13:25;;;;;;;0.52;0.20;;;;;;;;;;4994452;28;20026;-81
2023/01/13 11:16:12;;;;;;;0.55;0.30;;;;;;;;;;4992208;28;20031;-83
2023/01/13 11:18:50;;;;;;;2.17;0.28;;;;;;;;;;4989748;28;20250;-83
2023/01/13 11:21:24;;;;;;;0.40;0.20;;;;;;;;;;4984977;28;20045;-81
2023/01/13 11:23:59;;;;;;;1.52;0.28;;;;;;;;;;4993829;28;20030;-81
2023/01/13 11:26:32;;;;;;;1.38;0.30;;;;;;;;;;4996976;28;20102;-82
2023/01/13 11:29:09;;;;;;;3.83;0.77;;;;;;;;;;4994620;28;20030;-85
2023/01/13 11:31:49;;;;;;;0.70;0.25;;;;;;;;;;4991748;28;20309;-82
2023/01/13 11:34:44;;;;;;;2.67;0.35;;;;;;;;;;4997234;28;20082;-83
2023/01/13 11:37:24;;;;;;;0.38;0.20;;;;;;;;;;4986822;28;20042;-82
2023/01/13 11:40:04;;;;;;;0.82;0.10;;;;;;;;;;4988644;28;20026;-82
2023/01/13 11:42:36;;;;;;;4.57;0.73;;;;;;;;;;4990118;28;20034;-83
2023/01/13 11:45:05;;;;;;;5.90;0.70;;;10.30;99.90;;;;;;4992097;28;20035;-82
2023/01/13 11:47:32;;;;;;;0.80;0.10;;;;;;;;;;4996105;28;20033;-82
2023/01/13 11:49:58;;;;;;;1.30;0.40;;;;;;;;;;4995632;28;20030;-80
2023/01/13 11:52:58;;;;;;;1.27;0.30;;;10.20;99.90;;;;;;4993794;28;20044;-82
2023/01/13 11:55:30;;;;;;;3.95;0.40;;;;;;;;;;4990514;28;20042;-81
2023/01/13 11:58:12;;;;;;;4.45;0.60;;;;;;;;;;4994678;28;20061;-83
2023/01/13 12:00:47;;;;;;;2.25;1.08;;;;;;;;;;4987885;28;20097;-81
2023/01/13 12:03:16;;;;;;;2.05;0.52;;;;;;;;;;4987542;28;20130;-82
2023/01/13 12:05:58;;;;;;;2.28;0.65;;;10.70;99.90;;;;;;4994867;28;20358;-82
2023/01/13 12:08:36;;;;;;;3.47;0.30;;;;;;;;;;4993506;28;20057;-83
2023/01/13 12:11:22;;;;;;;5.15;0.77;;;11.00;99.90;;;;;;4987524;28;20053;-81
2023/01/13 12:14:38;;;;;;;0.57;0.40;;;9.80;99.90;;;;;;4993548;28;20022;-82
2023/01/13 12:17:07;;;;;;;8.68;1.05;;;;;;;;;;4982979;28;20035;-81
2023/01/13 12:19:33;;;;;;;1.88;0.30;;;;;;;;;;4983455;28;20027;-80
2023/01/13 12:21:59;;;;;;;2.80;0.45;;;;;;;;;;4986502;28;20030;-80
2023/01/13 12:24:32;;;;;;;1.98;0.38;;;;;;;;;;4996309;28;20097;-83
2023/01/13 12:27:08;;;;;;;2.88;0.40;;;;;;;;;;4993066;28;20435;-82
2023/01/13 12:29:36;;;;;;;0.63;0.20;;;;;;;;;;4993977;28;20065;-81
2023/01/13 12:32:04;;;;;;;0.10;0.10;;;;;;;;;;4984925;28;20077;-82
2023/01/13 12:34:34;;;;;;;5.45;0.40;;;;;;;;;;4995193;28;20927;-81
2023/01/13 12:37:05;;;;;;;3.95;0.43;;;;;;;;;;4996100;28;20030;-81
2023/01/13 12:39:40;;;;;;;1.02;0.30;;;;;;;;;;4989282;28;20063;-81
2023/01/13 12:45:11;;;;;;;1.35;0.47;;;;;;;;;;4983258;28;20050;-80
2023/01/13 12:47:42;;;;;;;0.38;0.13;;;;;;;;;;4987558;28;20046;-83
2023/01/13 12:50:23;;;;;;;6.82;0.82;;;;;;;;;;4989702;28;20037;-79
2023/01/13 12:53:16;;;;;;;2.33;0.50;;;10.90;99.90;;;;;;4990335;28;20038;-79
2023/01/13 12:55:42;;;;;;;4.10;0.45;;;;;;;;;;4988444;28;20034;-82
2023/01/13 12:58:08;;;;;;;2.33;1.05;;;;;;;;;;4996430;28;20027;-82
2023/01/13 13:00:40;;;;;;;3.60;0.40;;;;;;;;;;4983152;28;20019;-80
2023/01/13 13:03:12;;;;;;;3.45;0.73;;;;;;;;;;4991758;28;20030;-80
2023/01/13 13:05:38;;;;;;;1.85;0.60;;;;;;;;;;4986488;28;20101;-82
2023/01/13 13:08:09;;;;;;;4.03;0.30;;;;;;;;;;4984772;28;20038;-81
2023/01/13 13:10:42;;;;;;;7.82;0.73;;;;;;;;;;4987460;28;20475;-83
2023/01/13 13:13:38;;;;;;;1.58;0.38;;;10.20;99.90;;;;;;4989503;28;20027;-80
2023/01/13 13:16:23;;;;;;;1.45;0.40;;;10.20;99.90;;;;;;4994065;28;20114;-82
2023/01/13 13:18:49;;;;;;;3.78;0.52;;;;;;;;;;4982388;28;20023;-82
2023/01/13 13:21:15;;;;;;;3.90;0.57;;;;;;;;;;4982229;28;20036;-81
2023/01/13 13:23:47;;;;;;;3.38;0.32;;;;;;;;;;4989110;28;20118;-82
2023/01/13 13:26:16;;;;;;;1.75;0.73;;;;;;;;;;4999244;28;20036;-80
2023/01/13 13:28:54;;;;;;;1.95;0.60;;;;;;;;;;4989313;28;20090;-81
2023/01/13 13:31:31;;;;;;;3.45;0.73;;;9.10;99.90;;;;;;4979563;28;20056;-83
2023/01/13 13:34:21;;;;;;;2.33;0.60;;;;;;;;;;4986046;28;20030;-80
2023/01/13 13:46:45;;;;;;;5.55;1.10;;;9.90;99.90;;;;;;4984848;28;20073;-82
2023/01/13 13:48:38;;;;;;;7.97;0.75;;;;;;;;;;4975445;28;20070;-84
2023/01/13 13:51:27;;;;;;;2.67;0.50;;;10.00;99.90;;;;;;4971915;28;20073;-83
2023/01/13 13:53:54;;;;;;;4.40;1.33;;;;;;;;;;4981023;28;20026;-82
2023/01/13 13:56:25;;;;;;;4.63;0.60;;;9.90;99.90;;;;;;4976800;28;20126;-82
2023/01/13 13:58:51;;;;;;;2.40;0.55;;;9.90;99.90;;;;;;4980282;28;20035;-82
2023/01/13 14:01:32;;;;;;;4.10;0.50;;;;;;;;;;4972222;28;20659;-81
2023/01/13 14:04:07;;;;;;;1.40;0.50;;;;;;;;;;4968463;28;20113;-81
2023/01/13 14:06:33;;;;;;;7.95;1.00;;;;;;;;;;4977806;28;20026;-81
2023/01/13 14:08:59;;;;;;;0.40;0.30;;;;;;;;;;4976391;28;20109;-80
2023/01/13 14:11:25;;;;;;;3.03;0.30;;;;;;;;;;4976860;28;20134;-81
2023/01/13 14:14:01;;;;;;;2.78;1.15;;;;;;;;;;4975137;28;20096;-80
2023/01/13 14:16:27;;;;;;;1.02;0.43;;;;;;;;;;4980904;28;20042;-81
2023/01/13 14:18:54;;;;;;;3.13;0.73;;;;;;;;;;4978691;28;20527;-81
2023/01/13 14:21:26;;;;;;;0.93;0.40;;;8.70;99.90;;;;;;4977554;28;20038;-81
2023/01/13 14:23:57;;;;;;;6.88;0.80;;;;;;;;;;4980191;28;20053;-82
2023/01/13 14:26:25;;;;;;;4.75;0.47;;;;;;;;;;4974774;28;20042;-82
2023/01/13 14:28:51;;;;;;;1.35;0.68;;;;;;;;;;4977714;28;20019;-84
2023/01/13 14:31:17;;;;;;;5.50;2.03;;;;;;;;;;4970579;28;20049;-82
2023/01/13 14:33:45;;;;;;;4.40;0.82;;;;;;;;;;4977153;28;20392;-83
2023/01/13 14:36:11;;;;;;;4.18;0.45;;;;;;;;;;4974946;28;20027;-80
2023/01/13 14:38:37;;;;;;;7.07;1.75;;;;;;;;;;4975022;28;20026;-82
2023/01/13 14:41:20;;;;;;;8.70;0.63;;;;;;;;;;4971852;28;20050;-82
2023/01/13 14:43:47;;;;;;;1.38;0.47;;;;;;;;;;4969806;28;20041;-83
2023/01/13 14:46:13;;;;;;;3.65;0.95;;;;;;;;;;4977784;28;20820;-83
2023/01/13 14:48:42;;;;;;;1.35;0.40;;;;;;;;;;4971552;28;20479;-83
2023/01/13 14:51:11;;;;;;;3.50;0.77;;;9.80;99.90;;;;;;4969724;28;20031;-82
2023/01/13 14:53:37;;;;;;;1.75;0.20;;;;;;;;;;4979516;28;20058;-82
2023/01/13 14:56:41;;;;;;;4.10;1.88;;;9.00;99.90;;;;;;4976610;28;20522;-83
2023/01/13 14:59:39;;;;;;;3.30;0.70;;;8.90;99.90;;;;;;4977370;28;20038;-82
2023/01/13 15:02:24;;;;;;;2.20;1.40;;;8.90;99.90;;;;;;4975113;28;20125;-83
2023/01/13 15:04:53;;;;;;;2.70;1.05;;;;;;;;;;4983117;28;20091;-83
2023/01/13 15:07:31;;;;;;;3.15;0.40;;;;;;;;;;4982759;28;20567;-83
2023/01/13 15:09:59;;;;;;;2.70;0.82;;;;;;;;;;4985928;28;20031;-82
2023/01/13 15:12:38;;;;;;;3.85;0.50;;;;;;;;;;4983993;28;20550;-83
2023/01/13 15:15:06;;;;;;;3.17;1.38;;;;;;;;;;4983355;28;20026;-82
2023/01/13 15:17:32;;;;;;;3.47;0.40;;;;;;;;;;4983487;28;20050;-84
2023/01/13 15:19:59;;;;;;;3.20;0.88;;;;;;;;;;4979579;28;20060;-83
2023/01/13 15:22:25;;;;;;;1.67;0.35;;;;;;;;;;4982935;28;20031;-82
2023/01/13 15:24:51;;;;;;;7.22;0.88;;;;;;;;;;4975611;28;20105;-80
2023/01/13 15:27:19;;;;;;;2.97;0.70;;;;;;;;;;4974753;28;20050;-81
2023/01/13 15:29:45;;;;;;;6.57;2.58;;;;;;;;;;4978649;28;20092;-80
2023/01/13 15:32:18;;;;;;;1.58;0.57;;;;;;;;;;4966101;28;20043;-79
2023/01/13 15:34:45;;;;;;;5.10;1.10;;;;;;;;;;4978937;28;20104;-80